Flight Track Log - Related Links

Times and Time Zones

All times are in EDT time to prevent confusion due to time zone crossing. See the SKW6492 flight status page for this flight to view local times or setup timezone preferences in your user account.

Time Position Orientation Groundspeed Altitude Reporting Facility
EDT Latitude Longitude Course Direction KTS MPH feet Rate Location/Type
Wed 09:43:13 PM 39.9081 -104.6950 346° North 170 196 7,400  Level Denver Center
Wed 09:44:15 PM 39.9600 -104.6836 10° North 188 216 9,400 1,805 Climbing Denver Center
Wed 09:45:00 PM 40.1539 -104.7678 347° North  Level FlightAware Approximate
Wed 09:45:16 PM 40.0397 -104.6603 13° North 274 315 11,100  Level Denver Center
Wed 09:46:00 PM 40.2560 -104.7984 347° North  Level FlightAware Approximate
Wed 09:46:18 PM 40.1211 -104.6753 352° North 292 336 13,500  Level Denver Center
Wed 09:47:00 PM 40.3578 -104.8304 346° North  Level FlightAware Approximate
Wed 09:47:20 PM 40.2064 -104.6975 349° North 309 356 15,900  Level Denver Center
Wed 09:48:00 PM 40.4594 -104.8642 346° North  Level FlightAware Approximate
Wed 09:48:21 PM 40.3036 -104.7236 348° North 330 380 17,800  Level Denver Center
Wed 09:49:23 PM 40.4008 -104.7489 349° North 357 411 18,900 1,463 Climbing Denver Center
Wed 09:50:24 PM 40.5083 -104.7775 349° North 361 415 20,800 1,659 Climbing Denver Center
Wed 09:51:26 PM 40.6128 -104.8042 349° North 382 440 22,300 1,355 Climbing Denver Center
Wed 09:52:28 PM 40.7175 -104.8325 348° North 386 444 23,600 1,122 Climbing Denver Center
Wed 09:53:29 PM 40.8247 -104.8681 346° North 393 452 24,600 933 Climbing Denver Center
Wed 09:54:43 PM 40.9314 -104.9217 339° North 405 466 25,700 1,324 Climbing Denver Center
Wed 09:55:45 PM 41.0608 -104.9847 340° North 409 471 27,600 1,561 Climbing Denver Center
Wed 09:56:46 PM 41.1769 -105.0428 339° North 400 460 28,900 976 Climbing Denver Center
Wed 09:57:48 PM 41.2794 -105.0942 339° North 407 468 29,600 537 Climbing Denver Center
Wed 09:58:49 PM 41.4006 -105.1519 340° North 414 476 30,000 195 Climbing Denver Center
Wed 09:59:51 PM 41.4975 -105.2367 327° Northwest 439 505 30,000  Level Denver Center
Wed 10:00:52 PM 41.5847 -105.3364 319° Northwest 435 501 30,000  Level Denver Center
Wed 10:01:54 PM 41.6842 -105.4542 319° Northwest 429 494 30,000  Level Denver Center
Wed 10:02:55 PM 41.7706 -105.5558 319° Northwest 429 494 30,000  Level Denver Center
Wed 10:03:57 PM 41.8689 -105.6722 319° Northwest 424 488 30,000  Level Denver Center
Wed 10:04:58 PM 41.9519 -105.7708 319° Northwest 418 481 30,000  Level Denver Center
Wed 10:06:00 PM 42.0344 -105.8692 318° Northwest 412 474 30,000  Level Denver Center
Wed 10:07:01 PM 42.1283 -105.9828 318° Northwest 406 467 30,000  Level Denver Center
Wed 10:08:03 PM 42.2069 -106.0775 318° Northwest 397 457 30,000  Level Denver Center
Wed 10:09:04 PM 42.2850 -106.1714 318° Northwest 392 451 30,000  Level Denver Center
Wed 10:10:06 PM 42.3750 -106.2814 318° Northwest 391 450 30,000  Level Denver Center
Wed 10:11:07 PM 42.4531 -106.3758 318° Northwest 392 451 30,000  Level Denver Center
Wed 10:12:09 PM 42.5425 -106.4847 318° Northwest 386 444 30,000  Level Denver Center
Wed 10:13:10 PM 42.6203 -106.5811 318° Northwest 394 453 30,000  Level Denver Center
Wed 10:14:12 PM 42.6972 -106.6758 318° Northwest 390 449 30,000  Level Denver Center
Wed 10:15:13 PM 42.7858 -106.7858 318° Northwest 388 447 30,000  Level Denver Center
Wed 10:16:14 PM 42.8492 -106.8639 318° Northwest 385 443 30,000  Level Denver Center
Wed 10:17:16 PM 42.9514 -106.9900 318° Northwest 387 445 30,000  Level Denver Center
Wed 10:18:17 PM 43.0261 -107.0847 317° Northwest 383 441 30,000  Level Denver Center
Wed 10:19:19 PM 43.1017 -107.1797 317° Northwest 385 443 30,000  Level Denver Center
Wed 10:20:20 PM 43.1917 -107.2933 317° Northwest 382 440 30,000  Level Denver Center
Wed 10:21:22 PM 43.2667 -107.3875 318° Northwest 382 440 30,000  Level Denver Center
Wed 10:21:59 PM 43.3153 -107.4519 316° Northwest 379 436 30,000  Level Salt Lake Center
Wed 10:23:01 PM 43.3889 -107.5453 317° Northwest 376 433 30,000  Level Salt Lake Center
Wed 10:24:02 PM 43.4739 -107.6553 317° Northwest 376 433 30,000  Level Salt Lake Center
Wed 10:25:04 PM 43.5472 -107.7486 317° Northwest 374 430 30,000  Level Salt Lake Center
Wed 10:26:05 PM 43.6328 -107.8569 318° Northwest 375 432 30,000  Level Salt Lake Center
Wed 10:27:07 PM 43.7042 -107.9517 316° Northwest 371 427 30,000  Level Salt Lake Center
Wed 10:28:08 PM 43.7764 -108.0444 317° Northwest 370 426 30,000 -341 Level Salt Lake Center
Wed 10:29:10 PM 43.8597 -108.1514 317° Northwest 365 420 29,300 -1,951 Descending Salt Lake Center
Wed 10:30:11 PM 43.9311 -108.2433 317° Northwest 364 419 26,000 -3,463 Descending Salt Lake Center
Wed 10:31:13 PM 44.0136 -108.3525 316° Northwest 365 420 22,200 -3,463 Descending Salt Lake Center
Wed 10:32:14 PM 44.0817 -108.4411 317° Northwest 358 412 18,900 -2,976 Descending Salt Lake Center
Wed 10:33:16 PM 44.1497 -108.5306 317° Northwest 353 406 16,100 -3,194 Descending Salt Lake Center
Wed 10:34:18 PM 44.2247 -108.6328 316° Northwest 346 398 12,300 -2,537 Descending Salt Lake Center
Wed 10:35:19 PM 44.2858 -108.7122 317° Northwest 332 382 10,900 -1,415 Descending Salt Lake Center
Wed 10:36:21 PM 44.3389 -108.7819 317° Northwest 304 350 9,400 -1,024 Descending Salt Lake Center
Wed 10:37:22 PM 44.3953 -108.8569 316° Northwest 273 314 8,800 -878 Descending Salt Lake Center
Wed 10:38:24 PM 44.4389 -108.9147 317° Northwest 250 288 7,600 -1,161 Descending Salt Lake Center

Login

Don't have an account? Register now (free) for customized features, flight alerts, and more!